Meteo Giornale » Osservazioni meteo Iraq » Basrah-Magal
ore: 21:00 - Osservazioni Meteo Basrah-Magal
Lat. 30° 34' N Lon. 47° 46' E Alt. 2 metri s.l.m.
34 °C
Sereno
Temp. 24 Ore
0 °C
44 °C
Nord-Ovest
13 Km/h
Dew point 14 °C
Umidità 30 %
Visibilità 10 Km
Il sole sorge alle ore 05:24
Il sole tramonta alle ore 18:13
| Data e Ora | Cielo e Fenomeni | T °C | DP °C | Um. % | Pres. hPa | Vis. km | Vento km/h | |
|---|---|---|---|---|---|---|---|---|
| Oggi h: 21:00 | Sereno | 34 | 14 | 30 | 1004 | 10 | NO 13 | |
| Oggi h: 19:00 | Sereno | 0 | 0 | 25 | 0 | 10 | O/NO 18.5 | |
| Oggi h: 18:00 | Sereno | 41 | 12 | 18 | 1002 | 10 | N/NO 24 | |
| Oggi h: 17:00 | Sereno | 42 | 11 | 16 | 1002 | 10 | N/NO 27.8 | |
| Oggi h: 16:00 | Sereno | 43 | 8 | 12 | 1002 | 10 | NO 33.3 | |
| Oggi h: 15:00 | Sereno | 43 | 8 | 12 | 1002 | 10 | NO 33.3 | |
| Oggi h: 14:00 | Sereno | 44 | 9 | 12 | 1003 | 10 | N/NO 37 | |
| Oggi h: 13:00 | Sereno | 43 | 8 | 12 | 1003 | 10 | NO 27.8 | |
| Oggi h: 12:00 | Sereno | 42 | 9 | 14 | 1003 | 10 | NO 27.8 | |
| Oggi h: 11:00 | Sereno | 41 | 10 | 15 | 1004 | 10 | O/NO 16.7 | |
| Oggi h: 10:00 | Sereno | 40 | 11 | 17 | 1005 | 10 | N/NO 16.7 | |
| Oggi h: 09:00 | Sereno | 36 | 12 | 23 | 1004 | 10 | N/NO 16.7 | |
| Oggi h: 08:00 | Sereno | 34 | 14 | 30 | 1004 | 8 | O/NO 16.7 | |
| Oggi h: 07:00 | Sereno | 32 | 15 | 35 | 1003 | 8 | O/NO 13 | |
| Oggi h: 06:00 | Sereno | 31 | 14 | 35 | 1002 | 7 | O/NO 14.8 | |
| Oggi h: 05:00 | Sereno | 31 | 14 | 35 | 1002 | 10 | NO 14.8 | |
| Oggi h: 04:00 | Sereno | 32 | 15 | 35 | 1002 | 10 | O/NO 14.8 | |
| Oggi h: 03:00 | Sereno | 32 | 17 | 40 | 1002 | 10 | O/NO 14.8 | |
| Oggi h: 02:00 | Sereno | 32 | 16 | 38 | 1001 | 8 | O 13 | |
| Oggi h: 01:00 | Sereno | 34 | 15 | 32 | 1001 | 8 | O/NO 11.1 | |
| Oggi h: 00:00 | Sereno | 34 | 16 | 34 | 1001 | 8 | O 16.7 | |
| Ieri h: 23:00 | Poco Nuvoloso | 35 | 16 | 32 | 1001 | 8 | O 22.2 | |
| Ieri h: 22:00 | Poco Nuvoloso | 38 | 15 | 25 | 1001 | 8 | O/NO 18.5 | |



